createdAt,value
2017-10-16T00:00:25.518Z,21.39
2017-10-16T00:00:57.182Z,21.38
2017-10-16T00:01:29.063Z,21.37
2017-10-16T00:02:00.717Z,21.37
2017-10-16T00:02:32.367Z,21.37
2017-10-16T00:03:04.200Z,21.36
2017-10-16T00:03:35.858Z,21.37
2017-10-16T00:04:07.779Z,21.37
2017-10-16T00:04:39.534Z,21.38
2017-10-16T00:05:11.190Z,21.38
2017-10-16T00:05:42.838Z,21.39
2017-10-16T00:06:14.486Z,21.37
2017-10-16T00:06:46.136Z,21.37
2017-10-16T00:07:18.046Z,21.37
2017-10-16T00:07:49.701Z,21.36
2017-10-16T00:08:21.378Z,21.36
2017-10-16T00:08:53.236Z,21.36
2017-10-16T00:09:24.890Z,21.36
2017-10-16T00:09:56.538Z,21.36
2017-10-16T00:10:28.204Z,21.36
2017-10-16T00:10:59.856Z,21.35
2017-10-16T00:11:31.507Z,21.35
2017-10-16T00:12:03.160Z,21.35
2017-10-16T00:12:34.817Z,21.35
2017-10-16T00:13:06.470Z,21.34
2017-10-16T00:13:38.123Z,21.36
2017-10-16T00:14:09.966Z,21.36
2017-10-16T00:14:41.623Z,21.36
2017-10-16T00:15:13.314Z,21.36
2017-10-16T00:15:44.962Z,21.36
2017-10-16T00:16:16.610Z,21.35
2017-10-16T00:16:48.274Z,21.34
2017-10-16T00:17:20.157Z,21.34
2017-10-16T00:17:52.112Z,21.35
2017-10-16T00:18:23.759Z,21.34
2017-10-16T00:18:55.450Z,21.34
2017-10-16T00:19:27.098Z,21.35
2017-10-16T00:19:58.794Z,21.36
2017-10-16T00:20:30.443Z,21.36
2017-10-16T00:21:02.090Z,21.37
2017-10-16T00:21:33.738Z,21.37
2017-10-16T00:22:05.388Z,21.37
2017-10-16T00:22:37.034Z,21.38
2017-10-16T00:23:08.686Z,21.39
2017-10-16T00:23:40.482Z,21.38
2017-10-16T00:24:12.130Z,21.38
2017-10-16T00:24:43.830Z,21.38
2017-10-16T00:25:15.714Z,21.37
2017-10-16T00:25:47.366Z,21.37
2017-10-16T00:26:19.014Z,21.37
2017-10-16T00:26:50.674Z,21.36
2017-10-16T00:27:22.322Z,21.36
2017-10-16T00:27:53.970Z,21.37
2017-10-16T00:28:25.824Z,21.36
2017-10-16T00:28:57.480Z,21.36
2017-10-16T00:29:29.182Z,21.37
2017-10-16T00:30:00.829Z,21.38
2017-10-16T00:30:32.482Z,21.38
2017-10-16T00:31:04.136Z,21.37
2017-10-16T00:31:35.990Z,21.37
2017-10-16T00:32:07.673Z,21.37
2017-10-16T00:32:39.321Z,21.37
2017-10-16T00:33:10.966Z,21.35
2017-10-16T00:33:42.618Z,21.35
2017-10-16T00:34:14.266Z,21.35
2017-10-16T00:34:45.927Z,21.33
2017-10-16T00:35:17.828Z,21.32
2017-10-16T00:35:49.481Z,21.33
2017-10-16T00:36:21.130Z,21.32
2017-10-16T00:36:52.782Z,21.32
2017-10-16T00:37:24.430Z,21.32
2017-10-16T00:37:56.348Z,21.32
2017-10-16T00:38:28.002Z,21.32
2017-10-16T00:38:59.651Z,21.29
2017-10-16T00:39:31.314Z,21.31
2017-10-16T00:40:03.141Z,21.30
2017-10-16T00:40:34.791Z,21.29
2017-10-16T00:41:06.447Z,21.29
2017-10-16T00:41:38.099Z,21.28
2017-10-16T00:42:09.767Z,21.28
2017-10-16T00:42:41.427Z,21.28
2017-10-16T00:43:13.381Z,21.27
2017-10-16T00:43:45.029Z,21.27
2017-10-16T00:44:16.682Z,21.28
2017-10-16T00:44:48.342Z,21.28
2017-10-16T00:45:20.052Z,21.29
2017-10-16T00:45:51.714Z,21.29
2017-10-16T00:46:23.361Z,21.30
2017-10-16T00:46:55.006Z,21.30
2017-10-16T00:47:26.675Z,21.31
2017-10-16T00:47:58.325Z,21.30
2017-10-16T00:48:30.107Z,21.30
2017-10-16T00:49:01.758Z,21.29
2017-10-16T00:49:33.410Z,21.28
2017-10-16T00:50:05.057Z,21.28
2017-10-16T00:50:36.935Z,21.27
2017-10-16T00:51:08.582Z,21.28
2017-10-16T00:51:40.238Z,21.27
2017-10-16T00:52:11.907Z,21.27
2017-10-16T00:52:43.558Z,21.27
2017-10-16T00:53:15.210Z,21.27
2017-10-16T00:53:46.862Z,21.28
2017-10-16T00:54:18.506Z,21.28
2017-10-16T00:54:50.154Z,21.29
2017-10-16T00:55:21.803Z,21.28
2017-10-16T00:55:53.709Z,21.28
2017-10-16T00:56:25.365Z,21.27
2017-10-16T00:56:57.023Z,21.25
2017-10-16T00:57:28.675Z,21.26
2017-10-16T00:58:00.327Z,21.26
2017-10-16T00:58:31.978Z,21.25
2017-10-16T00:59:03.635Z,21.25
2017-10-16T00:59:35.483Z,21.25
2017-10-16T01:00:07.130Z,21.26
2017-10-16T01:00:38.793Z,21.26
2017-10-16T01:01:10.482Z,21.25
2017-10-16T01:01:42.187Z,21.25
2017-10-16T01:02:13.839Z,21.24
2017-10-16T01:02:45.492Z,21.25
2017-10-16T01:03:17.141Z,21.24
2017-10-16T01:03:48.794Z,21.24
2017-10-16T01:04:20.447Z,21.24
2017-10-16T01:04:52.234Z,21.24
2017-10-16T01:05:23.886Z,21.23
2017-10-16T01:05:55.538Z,21.24
2017-10-16T01:06:27.195Z,21.25
2017-10-16T01:06:58.884Z,21.24
2017-10-16T01:07:30.534Z,21.22
2017-10-16T01:08:02.191Z,21.22
2017-10-16T01:08:33.843Z,21.25
2017-10-16T01:09:05.491Z,21.25
2017-10-16T01:09:37.155Z,21.25
2017-10-16T01:10:08.802Z,21.24
2017-10-16T01:10:40.455Z,21.22
2017-10-16T01:11:12.247Z,21.22
2017-10-16T01:11:43.906Z,21.23
2017-10-16T01:12:15.551Z,21.23
2017-10-16T01:12:47.198Z,21.23
2017-10-16T01:13:18.988Z,21.23
2017-10-16T01:13:50.762Z,21.22
2017-10-16T01:14:22.417Z,21.22
2017-10-16T01:14:54.067Z,21.21
2017-10-16T01:15:25.719Z,21.22
2017-10-16T01:15:57.532Z,21.22
2017-10-16T01:16:29.233Z,21.23
2017-10-16T01:17:00.890Z,21.22
2017-10-16T01:17:32.543Z,21.22
2017-10-16T01:18:04.201Z,21.21
2017-10-16T01:18:36.152Z,21.20
2017-10-16T01:19:07.807Z,21.21
2017-10-16T01:19:39.459Z,21.21
2017-10-16T01:20:11.117Z,21.20
2017-10-16T01:20:42.996Z,21.20
2017-10-16T01:21:14.648Z,21.20
2017-10-16T01:21:46.348Z,21.21
2017-10-16T01:22:18.006Z,21.22
2017-10-16T01:22:49.654Z,21.22
2017-10-16T01:23:21.317Z,21.22
2017-10-16T01:23:53.189Z,21.22
2017-10-16T01:24:24.841Z,21.22
2017-10-16T01:24:56.495Z,21.21
2017-10-16T01:25:28.149Z,21.20
2017-10-16T01:25:59.807Z,21.20
2017-10-16T01:26:31.475Z,21.23
2017-10-16T01:27:03.206Z,21.23
2017-10-16T01:27:34.987Z,21.22
2017-10-16T01:28:06.637Z,21.22
2017-10-16T01:28:38.293Z,21.21
2017-10-16T01:29:09.947Z,21.21
2017-10-16T01:29:41.625Z,21.21
2017-10-16T01:30:13.289Z,21.21
2017-10-16T01:30:44.951Z,21.19
2017-10-16T01:31:16.603Z,21.19
2017-10-16T01:31:48.254Z,21.19
2017-10-16T01:32:19.982Z,21.18
2017-10-16T01:32:51.634Z,21.19
2017-10-16T01:33:23.291Z,21.17
2017-10-16T01:33:54.942Z,21.18
2017-10-16T01:34:26.595Z,21.18
2017-10-16T01:34:58.264Z,21.19
2017-10-16T01:35:30.153Z,21.18
2017-10-16T01:36:01.807Z,21.19
2017-10-16T01:36:33.458Z,21.19
2017-10-16T01:37:05.114Z,21.19
2017-10-16T01:37:36.800Z,21.19
2017-10-16T01:38:08.458Z,21.19
2017-10-16T01:38:40.117Z,21.19
2017-10-16T01:39:11.772Z,21.19
2017-10-16T01:39:43.438Z,21.18
2017-10-16T01:40:15.110Z,21.19
2017-10-16T01:40:46.763Z,21.19
2017-10-16T01:41:18.414Z,21.18
2017-10-16T01:41:50.070Z,21.17
2017-10-16T01:42:21.727Z,21.18
2017-10-16T01:42:53.422Z,21.17
2017-10-16T01:43:25.079Z,21.17
2017-10-16T01:43:56.735Z,21.19
2017-10-16T01:44:28.394Z,21.18
2017-10-16T01:45:00.095Z,21.19
2017-10-16T01:45:31.756Z,21.18
2017-10-16T01:46:03.412Z,21.18
2017-10-16T01:46:35.068Z,21.18
2017-10-16T01:47:06.719Z,21.18
2017-10-16T01:47:38.374Z,21.18
2017-10-16T01:48:10.250Z,21.18
2017-10-16T01:48:41.907Z,21.18
2017-10-16T01:49:13.558Z,21.18
2017-10-16T01:49:45.205Z,21.19
2017-10-16T01:50:17.085Z,21.20
2017-10-16T01:50:48.738Z,21.20
2017-10-16T01:51:20.393Z,21.20
2017-10-16T01:51:52.359Z,21.20
2017-10-16T01:52:24.028Z,21.21
2017-10-16T01:52:55.722Z,21.20
2017-10-16T01:53:27.525Z,21.21
2017-10-16T01:53:59.187Z,21.20
2017-10-16T01:54:30.841Z,21.19
2017-10-16T01:55:02.825Z,21.19
2017-10-16T01:55:34.531Z,21.19
2017-10-16T01:56:06.182Z,21.18
2017-10-16T01:56:37.841Z,21.18
2017-10-16T01:57:09.495Z,21.18
2017-10-16T01:57:41.146Z,21.17
2017-10-16T01:58:12.811Z,21.18
2017-10-16T01:58:44.468Z,21.17
2017-10-16T01:59:16.122Z,21.16
2017-10-16T01:59:48.178Z,21.17
2017-10-16T02:00:19.840Z,21.16
2017-10-16T02:00:51.510Z,21.15
2017-10-16T02:01:23.161Z,21.15
2017-10-16T02:01:54.810Z,21.15
2017-10-16T02:02:26.463Z,21.15
2017-10-16T02:02:58.118Z,21.15
2017-10-16T02:03:30.020Z,21.15
2017-10-16T02:04:01.671Z,21.17
2017-10-16T02:04:33.334Z,21.18
2017-10-16T02:05:05.002Z,21.20
2017-10-16T02:05:36.656Z,21.19
2017-10-16T02:06:08.352Z,21.18
2017-10-16T02:06:40.000Z,21.17
2017-10-16T02:07:11.671Z,21.18
2017-10-16T02:07:43.329Z,21.18
2017-10-16T02:08:15.100Z,21.18
2017-10-16T02:08:46.750Z,21.18
2017-10-16T02:09:18.398Z,21.18
2017-10-16T02:09:50.046Z,21.19
2017-10-16T02:10:21.695Z,21.17
2017-10-16T02:10:53.346Z,21.17
2017-10-16T02:11:24.993Z,21.17
2017-10-16T02:11:56.644Z,21.17
2017-10-16T02:12:28.294Z,21.16
2017-10-16T02:13:00.069Z,21.16
2017-10-16T02:13:31.721Z,21.17
2017-10-16T02:14:03.375Z,21.17
2017-10-16T02:14:35.027Z,21.15
2017-10-16T02:15:06.678Z,21.16
2017-10-16T02:15:38.378Z,21.15
2017-10-16T02:16:10.037Z,21.15
2017-10-16T02:16:41.694Z,21.14
2017-10-16T02:17:13.341Z,21.15
2017-10-16T02:17:44.990Z,21.15
2017-10-16T02:18:16.642Z,21.14
2017-10-16T02:18:48.290Z,21.14
2017-10-16T02:19:19.938Z,21.14
2017-10-16T02:19:51.586Z,21.15
2017-10-16T02:20:23.238Z,21.16
2017-10-16T02:20:54.930Z,21.15
2017-10-16T02:21:26.582Z,21.14
2017-10-16T02:21:58.229Z,21.14
2017-10-16T02:22:29.878Z,21.15
2017-10-16T02:23:01.527Z,21.15
2017-10-16T02:23:33.178Z,21.14
2017-10-16T02:24:04.831Z,21.15
2017-10-16T02:24:36.490Z,21.15
2017-10-16T02:25:08.256Z,21.15
2017-10-16T02:25:39.910Z,21.14
2017-10-16T02:26:11.559Z,21.14
2017-10-16T02:26:43.210Z,21.15
2017-10-16T02:27:14.858Z,21.14
2017-10-16T02:27:46.506Z,21.14
2017-10-16T02:28:18.374Z,21.15
2017-10-16T02:28:50.061Z,21.15
2017-10-16T02:29:21.716Z,21.15
2017-10-16T02:29:53.370Z,21.15
2017-10-16T02:30:25.018Z,21.15
2017-10-16T02:30:56.712Z,21.15
2017-10-16T02:31:28.540Z,21.14
2017-10-16T02:32:00.221Z,21.14
2017-10-16T02:32:31.877Z,21.15
2017-10-16T02:33:03.533Z,21.15
2017-10-16T02:33:35.190Z,21.16
2017-10-16T02:34:06.839Z,21.17
2017-10-16T02:34:38.735Z,21.20
2017-10-16T02:35:10.390Z,21.27
2017-10-16T02:35:42.038Z,21.28
2017-10-16T02:36:13.687Z,21.28
2017-10-16T02:36:45.344Z,21.24
2017-10-16T02:37:16.996Z,21.22
2017-10-16T02:37:48.890Z,21.21
2017-10-16T02:38:20.543Z,21.21
2017-10-16T02:38:52.244Z,21.19
2017-10-16T02:39:23.898Z,21.18
2017-10-16T02:39:55.556Z,21.17
2017-10-16T02:40:27.215Z,21.17
2017-10-16T02:40:58.868Z,21.18
2017-10-16T02:41:30.517Z,21.18
2017-10-16T02:42:02.172Z,21.18
2017-10-16T02:42:33.826Z,21.19
2017-10-16T02:43:05.480Z,21.19
2017-10-16T02:43:37.134Z,21.19
2017-10-16T02:44:08.835Z,21.18
2017-10-16T02:44:40.495Z,21.19
2017-10-16T02:45:12.166Z,21.19
2017-10-16T02:45:43.827Z,21.19
2017-10-16T02:46:15.477Z,21.19
2017-10-16T02:46:47.131Z,21.19
2017-10-16T02:47:18.786Z,21.19
2017-10-16T02:47:50.441Z,21.19
2017-10-16T02:48:22.099Z,21.19
2017-10-16T02:48:53.779Z,21.20
2017-10-16T02:49:25.477Z,21.20
2017-10-16T02:49:57.135Z,21.20
2017-10-16T02:50:28.795Z,21.20
2017-10-16T02:51:00.459Z,21.21
2017-10-16T02:51:32.126Z,21.20
2017-10-16T02:52:03.800Z,21.20
2017-10-16T02:52:35.462Z,21.20
2017-10-16T02:53:07.426Z,21.19
2017-10-16T02:53:39.086Z,21.19
2017-10-16T02:54:10.742Z,21.19
2017-10-16T02:54:42.443Z,21.19
2017-10-16T02:55:14.092Z,21.20
2017-10-16T02:55:45.749Z,21.19
2017-10-16T02:56:17.403Z,21.19
2017-10-16T02:56:49.059Z,21.20
2017-10-16T02:57:20.727Z,21.19
2017-10-16T02:57:52.393Z,21.20
2017-10-16T02:58:24.048Z,21.21
2017-10-16T02:58:55.702Z,21.22
2017-10-16T02:59:27.358Z,21.23
2017-10-16T02:59:59.010Z,21.20
2017-10-16T03:00:30.666Z,21.19
2017-10-16T03:01:02.319Z,21.18
2017-10-16T03:01:33.969Z,21.16
2017-10-16T03:02:05.625Z,21.14
2017-10-16T03:02:37.291Z,21.13
2017-10-16T03:03:08.942Z,21.13
2017-10-16T03:03:40.796Z,21.12
2017-10-16T03:04:12.454Z,21.12
2017-10-16T03:04:44.102Z,21.13
2017-10-16T03:05:15.791Z,21.12
2017-10-16T03:05:47.690Z,21.12
2017-10-16T03:06:19.346Z,21.12
2017-10-16T03:06:51.002Z,21.12
2017-10-16T03:07:22.664Z,21.11
2017-10-16T03:07:54.632Z,21.11
2017-10-16T03:08:26.284Z,21.10
2017-10-16T03:08:57.945Z,21.10
2017-10-16T03:09:29.594Z,21.10
2017-10-16T03:10:01.311Z,21.09
2017-10-16T03:10:32.962Z,21.10
2017-10-16T03:11:04.613Z,21.11
2017-10-16T03:11:36.266Z,21.12
2017-10-16T03:12:07.915Z,21.13
2017-10-16T03:12:39.566Z,21.14
2017-10-16T03:13:11.214Z,21.15
2017-10-16T03:13:42.906Z,21.15
2017-10-16T03:14:14.554Z,21.15
2017-10-16T03:14:46.198Z,21.15
2017-10-16T03:15:17.931Z,21.15
2017-10-16T03:15:49.586Z,21.15
2017-10-16T03:16:21.249Z,21.15
2017-10-16T03:16:53.155Z,21.14
2017-10-16T03:17:24.858Z,21.15
2017-10-16T03:17:56.516Z,21.14
2017-10-16T03:18:28.169Z,21.14
2017-10-16T03:19:00.030Z,21.15
2017-10-16T03:19:31.682Z,21.15
2017-10-16T03:20:03.334Z,21.15
2017-10-16T03:20:34.991Z,21.16
2017-10-16T03:21:06.662Z,21.16
2017-10-16T03:21:38.330Z,21.16
2017-10-16T03:22:10.189Z,21.15
2017-10-16T03:22:41.900Z,21.15
2017-10-16T03:23:13.779Z,21.14
2017-10-16T03:23:45.611Z,21.14
2017-10-16T03:24:17.370Z,21.14
2017-10-16T03:24:49.320Z,21.16
2017-10-16T03:25:20.969Z,21.15
2017-10-16T03:25:52.619Z,21.14
2017-10-16T03:26:24.265Z,21.14
2017-10-16T03:26:55.918Z,21.14
2017-10-16T03:27:27.567Z,21.14
2017-10-16T03:27:59.398Z,21.15
2017-10-16T03:28:31.058Z,21.15
2017-10-16T03:29:02.710Z,21.15
2017-10-16T03:29:34.401Z,21.14
2017-10-16T03:30:06.057Z,21.14
2017-10-16T03:30:37.727Z,21.12
2017-10-16T03:31:09.619Z,21.12
2017-10-16T03:31:41.290Z,21.12
2017-10-16T03:32:12.942Z,21.12
2017-10-16T03:32:44.602Z,21.12
2017-10-16T03:33:16.258Z,21.12
2017-10-16T03:33:47.911Z,21.14
2017-10-16T03:34:19.563Z,21.14
2017-10-16T03:34:51.404Z,21.13
2017-10-16T03:35:23.386Z,21.14
2017-10-16T03:35:55.038Z,21.14
2017-10-16T03:36:26.729Z,21.14
2017-10-16T03:36:58.625Z,21.13
2017-10-16T03:37:30.282Z,21.14
2017-10-16T03:38:01.934Z,21.13
2017-10-16T03:38:33.582Z,21.12
2017-10-16T03:39:05.234Z,21.11
2017-10-16T03:39:36.930Z,21.11
2017-10-16T03:40:08.778Z,21.10
2017-10-16T03:40:40.430Z,21.11
2017-10-16T03:41:12.081Z,21.11
2017-10-16T03:41:43.730Z,21.11
2017-10-16T03:42:15.378Z,21.11
2017-10-16T03:42:47.030Z,21.09
2017-10-16T03:43:18.679Z,21.09
2017-10-16T03:43:50.340Z,21.08
2017-10-16T03:44:22.220Z,21.11
2017-10-16T03:44:53.902Z,21.09
2017-10-16T03:45:25.554Z,21.10
2017-10-16T03:45:57.206Z,21.09
2017-10-16T03:46:28.862Z,21.09
2017-10-16T03:47:00.744Z,21.09
2017-10-16T03:47:32.394Z,21.09
2017-10-16T03:48:04.042Z,21.09
2017-10-16T03:48:35.690Z,21.09
2017-10-16T03:49:07.354Z,21.10
2017-10-16T03:49:39.015Z,21.11
2017-10-16T03:50:10.707Z,21.10
2017-10-16T03:50:42.375Z,21.10
2017-10-16T03:51:14.028Z,21.09
2017-10-16T03:51:45.825Z,21.09
2017-10-16T03:52:17.492Z,21.08
2017-10-16T03:52:49.158Z,21.08
2017-10-16T03:53:20.815Z,21.08
2017-10-16T03:53:52.468Z,21.07
2017-10-16T03:54:24.165Z,21.07
2017-10-16T03:54:55.821Z,21.07
2017-10-16T03:55:27.622Z,21.06
2017-10-16T03:55:59.321Z,21.07
2017-10-16T03:56:30.976Z,21.06
2017-10-16T03:57:02.631Z,21.06
2017-10-16T03:57:34.288Z,21.06
2017-10-16T03:58:05.951Z,21.06
2017-10-16T03:58:37.605Z,21.07
2017-10-16T03:59:09.266Z,21.06
2017-10-16T03:59:40.925Z,21.06
2017-10-16T04:00:12.634Z,21.06
2017-10-16T04:00:44.281Z,21.05
2017-10-16T04:01:15.930Z,21.05
2017-10-16T04:01:47.579Z,21.05
2017-10-16T04:02:19.237Z,21.06
2017-10-16T04:02:50.895Z,21.05
2017-10-16T04:03:22.547Z,21.05
2017-10-16T04:03:54.198Z,21.05
2017-10-16T04:04:25.898Z,21.06
2017-10-16T04:04:57.548Z,21.05
2017-10-16T04:05:29.433Z,21.05
2017-10-16T04:06:01.082Z,21.04
2017-10-16T04:06:32.734Z,21.05
2017-10-16T04:07:04.394Z,21.05
2017-10-16T04:07:36.053Z,21.04
2017-10-16T04:08:07.706Z,21.03
2017-10-16T04:08:39.363Z,21.04
2017-10-16T04:09:11.018Z,21.04
2017-10-16T04:09:42.710Z,21.03
2017-10-16T04:10:14.359Z,21.04
2017-10-16T04:10:46.018Z,21.04
2017-10-16T04:11:17.671Z,21.05
2017-10-16T04:11:49.443Z,21.05
2017-10-16T04:12:21.094Z,21.07
2017-10-16T04:12:52.746Z,21.07
2017-10-16T04:13:24.399Z,21.08
2017-10-16T04:13:56.092Z,21.08
2017-10-16T04:14:27.959Z,21.09
2017-10-16T04:14:59.610Z,21.09
2017-10-16T04:15:31.302Z,21.10
2017-10-16T04:16:03.192Z,21.11
2017-10-16T04:16:34.842Z,21.10
2017-10-16T04:17:06.493Z,21.11
2017-10-16T04:17:38.158Z,21.11
2017-10-16T04:18:09.806Z,21.11
2017-10-16T04:18:41.462Z,21.11
2017-10-16T04:19:13.351Z,21.12
2017-10-16T04:19:45.002Z,21.11
2017-10-16T04:20:16.698Z,21.11
2017-10-16T04:20:48.356Z,21.11
2017-10-16T04:21:20.225Z,21.10
2017-10-16T04:21:52.174Z,21.11
2017-10-16T04:22:23.838Z,21.10
2017-10-16T04:22:55.489Z,21.10
2017-10-16T04:23:27.142Z,21.11
2017-10-16T04:23:58.790Z,21.10
2017-10-16T04:24:30.442Z,21.10
2017-10-16T04:25:02.095Z,21.09
2017-10-16T04:25:33.798Z,21.10
2017-10-16T04:26:05.446Z,21.11
2017-10-16T04:26:37.097Z,21.10
2017-10-16T04:27:08.746Z,21.10
2017-10-16T04:27:40.543Z,21.10
2017-10-16T04:28:12.194Z,21.10
2017-10-16T04:28:43.845Z,21.09
2017-10-16T04:29:15.494Z,21.08
2017-10-16T04:29:47.146Z,21.09
2017-10-16T04:30:18.794Z,21.10
2017-10-16T04:30:50.690Z,21.11
2017-10-16T04:31:22.464Z,21.11
2017-10-16T04:31:54.114Z,21.11
2017-10-16T04:32:25.762Z,21.10
2017-10-16T04:32:57.411Z,21.10
2017-10-16T04:33:29.062Z,21.10
2017-10-16T04:34:00.720Z,21.10
2017-10-16T04:34:32.502Z,21.09
2017-10-16T04:35:04.154Z,21.08
2017-10-16T04:35:35.806Z,21.05
2017-10-16T04:36:07.453Z,21.04
2017-10-16T04:36:39.103Z,21.03
2017-10-16T04:37:10.758Z,21.04
2017-10-16T04:37:42.413Z,21.02
2017-10-16T04:38:14.303Z,21.02
2017-10-16T04:38:45.954Z,21.02
2017-10-16T04:39:17.606Z,21.02
2017-10-16T04:39:49.254Z,21.03
2017-10-16T04:40:20.955Z,21.04
2017-10-16T04:40:52.819Z,21.04
2017-10-16T04:41:24.474Z,21.02
2017-10-16T04:41:56.138Z,21.03
2017-10-16T04:42:27.786Z,21.03
2017-10-16T04:42:59.434Z,21.02
2017-10-16T04:43:31.102Z,21.02
2017-10-16T04:44:02.759Z,21.02
2017-10-16T04:44:34.606Z,21.02
2017-10-16T04:45:06.570Z,21.03
2017-10-16T04:45:38.263Z,21.01
2017-10-16T04:46:10.160Z,21.01
2017-10-16T04:46:41.827Z,21.00
2017-10-16T04:47:13.475Z,21.01
2017-10-16T04:47:45.123Z,21.01
2017-10-16T04:48:16.780Z,21.01
2017-10-16T04:48:48.611Z,21.01
2017-10-16T04:49:20.262Z,21.00
2017-10-16T04:49:52.158Z,21.01
2017-10-16T04:50:24.112Z,21.00
2017-10-16T04:50:55.767Z,21.00
2017-10-16T04:51:27.458Z,21.00
2017-10-16T04:51:59.142Z,21.00
2017-10-16T04:52:30.794Z,21.00
2017-10-16T04:53:02.446Z,21.00
2017-10-16T04:53:34.127Z,20.99
2017-10-16T04:54:05.783Z,20.99
2017-10-16T04:54:37.659Z,20.99
2017-10-16T04:55:09.310Z,21.00
2017-10-16T04:55:40.963Z,21.02
2017-10-16T04:56:12.614Z,21.02
2017-10-16T04:56:44.538Z,21.03
2017-10-16T04:57:16.199Z,21.02
2017-10-16T04:57:47.881Z,21.02
2017-10-16T04:58:19.760Z,21.02
2017-10-16T04:58:51.716Z,21.02
2017-10-16T04:59:23.366Z,21.02
2017-10-16T04:59:55.022Z,21.02
2017-10-16T05:00:26.675Z,21.03
2017-10-16T05:00:58.326Z,21.04
2017-10-16T05:01:29.975Z,21.02
2017-10-16T05:02:01.683Z,21.01
2017-10-16T05:02:33.333Z,21.00
2017-10-16T05:03:04.982Z,21.00
2017-10-16T05:03:36.629Z,21.00
2017-10-16T05:04:08.287Z,20.99
2017-10-16T05:04:39.939Z,21.00
2017-10-16T05:05:11.594Z,21.00
2017-10-16T05:05:43.245Z,21.00
2017-10-16T05:06:15.009Z,21.01
2017-10-16T05:06:46.662Z,21.01
2017-10-16T05:07:18.355Z,21.02
2017-10-16T05:07:50.014Z,21.02
2017-10-16T05:08:21.884Z,21.02
2017-10-16T05:08:53.544Z,21.03
2017-10-16T05:09:25.197Z,21.03
2017-10-16T05:09:56.847Z,21.02
2017-10-16T05:10:28.498Z,21.02
2017-10-16T05:11:00.154Z,21.02
2017-10-16T05:11:32.043Z,21.02
2017-10-16T05:12:03.694Z,21.02
2017-10-16T05:12:35.633Z,21.02
2017-10-16T05:13:07.287Z,21.03
2017-10-16T05:13:38.938Z,21.02
2017-10-16T05:14:10.591Z,21.02
2017-10-16T05:14:42.242Z,21.02
2017-10-16T05:15:13.894Z,21.02
2017-10-16T05:15:45.545Z,21.02
2017-10-16T05:16:17.436Z,21.03
2017-10-16T05:16:49.086Z,21.03
2017-10-16T05:17:20.738Z,21.03
2017-10-16T05:17:52.385Z,21.04
2017-10-16T05:18:24.033Z,21.03
2017-10-16T05:18:55.681Z,21.02
2017-10-16T05:19:27.330Z,21.03
2017-10-16T05:19:58.978Z,21.03
2017-10-16T05:20:30.633Z,21.03
2017-10-16T05:21:02.518Z,21.02
2017-10-16T05:21:34.170Z,21.02
2017-10-16T05:22:05.826Z,21.00
2017-10-16T05:22:37.478Z,21.00
2017-10-16T05:23:09.362Z,21.00
2017-10-16T05:23:41.034Z,21.00
2017-10-16T05:24:12.682Z,21.00
2017-10-16T05:24:44.582Z,21.00
2017-10-16T05:25:16.268Z,21.00
2017-10-16T05:25:47.921Z,21.00
2017-10-16T05:26:19.574Z,21.00
2017-10-16T05:26:51.226Z,21.00
2017-10-16T05:27:22.874Z,21.00
2017-10-16T05:27:54.526Z,20.99
2017-10-16T05:28:26.177Z,20.98
2017-10-16T05:28:57.827Z,20.98
2017-10-16T05:29:29.711Z,20.99
2017-10-16T05:30:01.363Z,20.99
2017-10-16T05:30:33.017Z,20.98
2017-10-16T05:31:04.665Z,20.99
2017-10-16T05:31:36.314Z,20.98
2017-10-16T05:32:07.962Z,20.98
2017-10-16T05:32:39.609Z,20.98
2017-10-16T05:33:11.262Z,20.98
2017-10-16T05:33:43.153Z,20.98
2017-10-16T05:34:15.005Z,20.98
2017-10-16T05:34:46.655Z,20.98
2017-10-16T05:35:18.386Z,20.97
2017-10-16T05:35:50.039Z,20.97
2017-10-16T05:36:21.692Z,20.98
2017-10-16T05:36:53.347Z,20.98
2017-10-16T05:37:25.000Z,20.99
2017-10-16T05:37:56.654Z,20.98
2017-10-16T05:38:28.314Z,20.99
2017-10-16T05:39:00.186Z,20.98
2017-10-16T05:39:31.890Z,20.98
2017-10-16T05:40:03.674Z,20.98
2017-10-16T05:40:35.326Z,20.98
2017-10-16T05:41:06.974Z,20.97
2017-10-16T05:41:38.622Z,20.98
2017-10-16T05:42:10.274Z,20.99
2017-10-16T05:42:41.987Z,20.98
2017-10-16T05:43:13.638Z,21.00
2017-10-16T05:43:45.285Z,20.99
2017-10-16T05:44:16.938Z,20.98
2017-10-16T05:44:48.585Z,20.99
2017-10-16T05:45:20.235Z,20.99
2017-10-16T05:45:51.903Z,20.98
2017-10-16T05:46:23.743Z,20.98
2017-10-16T05:46:55.429Z,20.99
2017-10-16T05:47:27.082Z,20.98
2017-10-16T05:47:58.734Z,20.98
2017-10-16T05:48:30.390Z,20.97
2017-10-16T05:49:02.037Z,20.97
2017-10-16T05:49:33.947Z,20.98
2017-10-16T05:50:05.650Z,20.98
2017-10-16T05:50:37.538Z,20.99
2017-10-16T05:51:09.196Z,20.99
2017-10-16T05:51:40.850Z,20.99
2017-10-16T05:52:12.751Z,20.98
2017-10-16T05:52:44.718Z,20.98
2017-10-16T05:53:16.371Z,20.97
2017-10-16T05:53:48.022Z,20.97
2017-10-16T05:54:19.670Z,20.97
2017-10-16T05:54:51.320Z,20.97
2017-10-16T05:55:23.236Z,20.96
2017-10-16T05:55:54.886Z,20.98
2017-10-16T05:56:26.537Z,20.98
2017-10-16T05:56:58.190Z,20.96
2017-10-16T05:57:29.838Z,20.98
2017-10-16T05:58:01.493Z,20.98
2017-10-16T05:58:33.146Z,20.99
2017-10-16T05:59:05.037Z,21.00
2017-10-16T05:59:36.685Z,21.01
2017-10-16T06:00:08.385Z,21.00
2017-10-16T06:00:40.038Z,21.01
2017-10-16T06:01:11.911Z,21.01
2017-10-16T06:01:43.565Z,21.02
2017-10-16T06:02:15.217Z,21.03
2017-10-16T06:02:46.869Z,21.02
2017-10-16T06:03:18.522Z,21.02
2017-10-16T06:03:50.170Z,21.02
2017-10-16T06:04:21.822Z,21.03
2017-10-16T06:04:53.486Z,21.03
2017-10-16T06:05:25.198Z,21.03
2017-10-16T06:05:56.850Z,21.02
2017-10-16T06:06:28.501Z,21.02
2017-10-16T06:07:00.279Z,21.02
2017-10-16T06:07:31.930Z,21.03
2017-10-16T06:08:03.590Z,21.04
2017-10-16T06:08:35.239Z,21.03
2017-10-16T06:09:06.894Z,21.03
2017-10-16T06:09:38.549Z,21.02
2017-10-16T06:10:10.199Z,21.02
2017-10-16T06:10:41.906Z,21.03
2017-10-16T06:11:13.575Z,21.02
2017-10-16T06:11:45.364Z,21.02
2017-10-16T06:12:17.014Z,21.01
2017-10-16T06:12:48.662Z,21.02
2017-10-16T06:13:20.311Z,21.02
2017-10-16T06:13:51.958Z,21.02
2017-10-16T06:14:23.606Z,21.02
2017-10-16T06:14:55.264Z,21.01
2017-10-16T06:15:26.938Z,21.01
2017-10-16T06:15:58.657Z,21.03
2017-10-16T06:16:30.318Z,21.05
2017-10-16T06:17:02.090Z,21.09
2017-10-16T06:17:33.750Z,21.09
2017-10-16T06:18:05.403Z,21.13
2017-10-16T06:18:37.051Z,21.19
2017-10-16T06:19:08.701Z,21.23
2017-10-16T06:19:40.350Z,21.25
2017-10-16T06:20:11.999Z,21.24
2017-10-16T06:20:43.843Z,21.20
2017-10-16T06:21:15.533Z,21.18
2017-10-16T06:21:47.182Z,21.16
2017-10-16T06:22:18.834Z,21.12
2017-10-16T06:22:50.506Z,21.15
2017-10-16T06:23:22.177Z,21.18
2017-10-16T06:23:54.034Z,21.20
2017-10-16T06:24:25.932Z,21.21
2017-10-16T06:24:57.578Z,21.26
2017-10-16T06:25:29.282Z,21.19
2017-10-16T06:26:00.966Z,21.12
2017-10-16T06:26:32.614Z,21.04
2017-10-16T06:27:04.266Z,20.99
2017-10-16T06:27:35.915Z,20.96
2017-10-16T06:28:07.772Z,20.97
2017-10-16T06:28:39.440Z,20.95
2017-10-16T06:29:11.103Z,20.93
2017-10-16T06:29:42.754Z,20.89
2017-10-16T06:30:14.402Z,20.86
2017-10-16T06:30:46.058Z,20.83
2017-10-16T06:31:17.957Z,20.78
2017-10-16T06:31:49.614Z,20.74
2017-10-16T06:32:21.262Z,20.68
2017-10-16T06:32:52.910Z,20.66
2017-10-16T06:33:24.554Z,20.66
2017-10-16T06:33:56.202Z,20.65
2017-10-16T06:34:28.116Z,20.65
2017-10-16T06:34:59.766Z,20.63
2017-10-16T06:35:31.449Z,20.62
2017-10-16T06:36:03.106Z,20.60
2017-10-16T06:36:34.991Z,20.57
2017-10-16T06:37:06.646Z,20.57
2017-10-16T06:37:38.293Z,20.56
2017-10-16T06:38:09.942Z,20.55
2017-10-16T06:38:41.590Z,20.55
2017-10-16T06:39:13.238Z,20.53
2017-10-16T06:39:44.882Z,20.53
2017-10-16T06:40:16.530Z,20.54
2017-10-16T06:40:48.181Z,20.53
2017-10-16T06:41:20.076Z,20.54
2017-10-16T06:41:51.734Z,20.54
2017-10-16T06:42:23.385Z,20.56
2017-10-16T06:42:55.038Z,20.64
2017-10-16T06:43:26.686Z,20.66
2017-10-16T06:43:58.334Z,20.68
2017-10-16T06:44:29.986Z,20.70
2017-10-16T06:45:01.877Z,20.70
2017-10-16T06:45:33.534Z,20.75
2017-10-16T06:46:05.181Z,20.84
2017-10-16T06:46:37.007Z,20.91
2017-10-16T06:47:08.954Z,20.93
2017-10-16T06:47:40.700Z,20.90
2017-10-16T06:48:12.350Z,20.90